createdAt,value
2023-09-18T00:02:52.299Z,7.30
2023-09-18T00:07:56.939Z,8.00
2023-09-18T00:13:02.808Z,7.80
2023-09-18T00:18:07.577Z,7.97
2023-09-18T00:23:11.989Z,7.32
2023-09-18T00:28:17.955Z,7.57
2023-09-18T00:33:40.940Z,7.68
2023-09-18T00:38:45.444Z,5.38
2023-09-18T00:43:51.026Z,3.97
2023-09-18T00:48:56.589Z,4.25
2023-09-18T00:54:03.001Z,3.72
2023-09-18T00:59:09.630Z,3.85
2023-09-18T01:04:15.773Z,4.30
2023-09-18T01:09:21.233Z,4.38
2023-09-18T01:14:34.378Z,4.88
2023-09-18T01:19:43.354Z,4.63
2023-09-18T01:24:49.548Z,4.72
2023-09-18T01:29:54.785Z,4.97
2023-09-18T01:35:02.982Z,4.28
2023-09-18T01:40:10.647Z,4.27
2023-09-18T01:45:15.124Z,4.47
2023-09-18T01:50:19.337Z,4.80
2023-09-18T01:55:25.262Z,3.95
2023-09-18T02:00:31.695Z,5.22
2023-09-18T02:05:38.192Z,4.97
2023-09-18T02:10:44.072Z,6.03
2023-09-18T02:15:48.502Z,3.90
2023-09-18T02:20:52.593Z,4.22
2023-09-18T02:26:04.460Z,4.28
2023-09-18T02:31:09.903Z,4.18
2023-09-18T02:36:14.222Z,3.92
2023-09-18T02:41:19.808Z,3.80
2023-09-18T02:46:24.669Z,4.65
2023-09-18T02:51:29.234Z,4.72
2023-09-18T02:56:36.848Z,4.30
2023-09-18T03:01:41.425Z,4.55
2023-09-18T03:06:45.977Z,4.80
2023-09-18T03:11:52.176Z,3.90
2023-09-18T03:16:56.848Z,4.65
2023-09-18T03:22:03.012Z,4.75
2023-09-18T03:27:09.961Z,4.30
2023-09-18T03:32:17.695Z,4.72
2023-09-18T03:37:22.461Z,4.85
2023-09-18T03:42:29.548Z,4.38
2023-09-18T03:47:34.802Z,4.55
2023-09-18T03:52:42.044Z,5.15
2023-09-18T03:57:49.824Z,4.28
2023-09-18T04:02:54.230Z,3.50
2023-09-18T04:08:01.358Z,4.43
2023-09-18T04:13:07.590Z,3.50
2023-09-18T04:18:11.913Z,3.90
2023-09-18T04:23:21.349Z,3.47
2023-09-18T04:28:27.436Z,3.88
2023-09-18T04:33:32.811Z,4.47
2023-09-18T04:38:37.355Z,3.95
2023-09-18T04:43:44.296Z,3.83
2023-09-18T04:48:48.653Z,3.60
2023-09-18T04:53:53.655Z,3.30
2023-09-18T04:58:59.692Z,5.32
2023-09-18T05:04:04.721Z,3.78
2023-09-18T05:09:09.262Z,4.20
2023-09-18T05:14:17.619Z,3.70
2023-09-18T05:19:23.181Z,3.87
2023-09-18T05:24:28.675Z,4.35
2023-09-18T05:29:34.352Z,3.75
2023-09-18T05:34:38.760Z,3.33
2023-09-18T05:39:43.026Z,4.28
2023-09-18T05:44:48.673Z,3.65
2023-09-18T05:49:53.107Z,3.03
2023-09-18T05:54:57.388Z,3.10
2023-09-18T06:00:04.218Z,3.33
2023-09-18T06:05:17.288Z,3.40
2023-09-18T06:10:22.527Z,3.88
2023-09-18T06:15:28.459Z,3.90
2023-09-18T06:20:32.973Z,4.07
2023-09-18T06:25:39.057Z,3.85
2023-09-18T06:30:44.789Z,3.50
2023-09-18T06:35:49.781Z,3.50
2023-09-18T06:40:55.124Z,4.03
2023-09-18T06:46:00.649Z,3.78
2023-09-18T06:51:05.505Z,3.08
2023-09-18T06:56:13.356Z,4.30
2023-09-18T07:01:20.889Z,4.95
2023-09-18T07:06:25.466Z,4.18
2023-09-18T07:11:29.776Z,3.75
2023-09-18T07:16:35.870Z,4.22
2023-09-18T07:21:41.799Z,3.92
2023-09-18T07:26:48.694Z,4.50
2023-09-18T07:31:55.299Z,5.10
2023-09-18T07:37:01.877Z,4.82
2023-09-18T07:42:06.841Z,4.93
2023-09-18T07:47:12.668Z,4.95
2023-09-18T07:52:18.134Z,5.35
2023-09-18T07:57:24.342Z,5.05
2023-09-18T08:02:33.167Z,4.82
2023-09-18T08:07:38.724Z,5.50
2023-09-18T08:12:42.939Z,6.20
2023-09-18T08:17:50.847Z,7.35
2023-09-18T08:22:57.505Z,7.35
2023-09-18T08:28:03.217Z,6.88
2023-09-18T08:33:10.289Z,6.10
2023-09-18T08:38:15.126Z,6.72
2023-09-18T08:43:20.987Z,7.85
2023-09-18T08:48:35.980Z,7.93
2023-09-18T08:53:40.644Z,7.68
2023-09-18T08:58:46.931Z,7.93
2023-09-18T09:03:52.476Z,8.55
2023-09-18T09:08:56.852Z,9.32
2023-09-18T09:14:14.510Z,8.77
2023-09-18T09:19:31.318Z,7.50
2023-09-18T09:24:40.342Z,7.35
2023-09-18T09:29:45.290Z,7.25
2023-09-18T09:34:51.034Z,7.40
2023-09-18T09:39:55.735Z,7.00
2023-09-18T09:45:05.758Z,6.90
2023-09-18T09:50:15.024Z,5.90
2023-09-18T09:55:27.246Z,7.45
2023-09-18T10:00:37.854Z,6.43
2023-09-18T10:05:45.576Z,7.68
2023-09-18T10:10:53.657Z,6.73
2023-09-18T10:15:59.328Z,6.20
2023-09-18T10:21:13.090Z,6.25
2023-09-18T10:26:26.253Z,7.35
2023-09-18T10:31:31.557Z,7.85
2023-09-18T10:36:40.026Z,7.75
2023-09-18T10:41:46.617Z,6.85
2023-09-18T10:46:54.552Z,7.33
2023-09-18T10:52:02.783Z,7.32
2023-09-18T10:57:07.624Z,7.28
2023-09-18T11:02:14.422Z,6.47
2023-09-18T11:07:25.979Z,7.03
2023-09-18T11:12:45.834Z,6.85
2023-09-18T11:18:01.595Z,6.78
2023-09-18T11:23:20.309Z,6.45
2023-09-18T11:28:27.239Z,6.85
2023-09-18T11:33:39.885Z,6.90
2023-09-18T11:39:04.932Z,6.22
2023-09-18T11:44:43.823Z,5.80
2023-09-18T11:49:56.248Z,5.57
2023-09-18T11:55:04.663Z,5.57
2023-09-18T12:00:25.305Z,5.70
2023-09-18T12:10:35.482Z,7.22
2023-09-18T12:15:41.334Z,7.43
2023-09-18T12:20:50.427Z,7.50
2023-09-18T12:26:05.591Z,6.00
2023-09-18T12:31:13.583Z,5.97
2023-09-18T12:36:22.699Z,5.78
2023-09-18T12:41:33.402Z,5.22
2023-09-18T12:46:39.420Z,4.80
2023-09-18T12:51:45.543Z,5.10
2023-09-18T12:56:51.308Z,4.78
2023-09-18T13:01:57.033Z,4.05
2023-09-18T13:07:10.198Z,5.32
2023-09-18T13:12:15.955Z,4.43
2023-09-18T13:17:20.232Z,4.50
2023-09-18T13:22:26.934Z,4.20
2023-09-18T13:27:33.173Z,4.78
2023-09-18T13:32:41.165Z,3.55
2023-09-18T13:42:53.715Z,3.60
2023-09-18T13:47:58.226Z,4.15
2023-09-18T13:53:04.147Z,4.45
2023-09-18T13:58:10.669Z,4.22
2023-09-18T14:03:16.733Z,3.92
2023-09-18T14:08:23.709Z,4.25
2023-09-18T14:13:29.262Z,3.58
2023-09-18T14:18:33.637Z,3.53
2023-09-18T14:23:38.561Z,3.55
2023-09-18T14:28:46.125Z,3.85
2023-09-18T14:33:50.591Z,4.68
2023-09-18T14:38:56.715Z,3.78
2023-09-18T14:44:05.322Z,3.70
2023-09-18T14:49:11.132Z,4.67
2023-09-18T14:54:16.259Z,4.28
2023-09-18T14:59:35.603Z,4.82
2023-09-18T15:04:45.834Z,3.78
2023-09-18T15:09:50.573Z,4.85
2023-09-18T15:14:58.053Z,4.47
2023-09-18T15:20:02.729Z,4.40
2023-09-18T15:25:07.965Z,3.83
2023-09-18T15:30:14.466Z,10.65
2023-09-18T15:35:18.879Z,26.60
2023-09-18T15:40:24.335Z,22.00
2023-09-18T15:45:30.253Z,7.13
2023-09-18T15:55:42.298Z,4.78
2023-09-18T16:00:47.957Z,4.00
2023-09-18T16:05:53.358Z,5.05
2023-09-18T16:10:57.677Z,5.40
2023-09-18T16:16:04.983Z,4.22
2023-09-18T16:21:10.962Z,3.80
2023-09-18T16:26:15.789Z,5.10
2023-09-18T16:31:23.818Z,5.82
2023-09-18T16:36:28.621Z,7.38
2023-09-18T16:41:33.383Z,6.90
2023-09-18T16:46:39.676Z,9.73
2023-09-18T16:51:44.511Z,6.03
2023-09-18T16:56:51.101Z,4.53
2023-09-18T17:01:56.653Z,4.05
2023-09-18T17:07:02.438Z,4.20
2023-09-18T17:12:08.088Z,3.88
2023-09-18T17:17:13.736Z,5.00
2023-09-18T17:22:19.367Z,4.18
2023-09-18T17:27:23.577Z,3.40
2023-09-18T17:32:29.711Z,5.20
2023-09-18T17:37:34.537Z,4.97
2023-09-18T17:42:38.685Z,6.03
2023-09-18T17:47:44.593Z,7.70
2023-09-18T17:52:49.017Z,8.07
2023-09-18T18:03:03.705Z,6.65
2023-09-18T18:08:10.010Z,5.65
2023-09-18T18:13:14.954Z,4.80
2023-09-18T18:18:24.341Z,3.55
2023-09-18T18:23:32.119Z,4.18
2023-09-18T18:28:38.452Z,2.63
2023-09-18T18:33:44.395Z,3.50
2023-09-18T18:38:48.658Z,4.47
2023-09-18T18:43:54.647Z,3.28
2023-09-18T18:49:00.730Z,3.50
2023-09-18T18:54:06.155Z,3.55
2023-09-18T18:59:10.825Z,3.55
2023-09-18T19:04:17.798Z,3.10
2023-09-18T19:09:22.410Z,2.75
2023-09-18T19:14:27.506Z,3.55
2023-09-18T19:19:35.542Z,3.20
2023-09-18T19:24:39.629Z,3.45
2023-09-18T19:29:46.965Z,3.40
2023-09-18T19:34:53.660Z,3.13
2023-09-18T19:39:57.729Z,2.95
2023-09-18T19:45:02.372Z,2.90
2023-09-18T19:50:09.299Z,3.28
2023-09-18T19:55:14.385Z,3.08
2023-09-18T20:00:18.929Z,3.70
2023-09-18T20:05:26.197Z,3.95
2023-09-18T20:10:31.170Z,3.35
2023-09-18T20:15:36.413Z,3.50
2023-09-18T20:20:41.959Z,4.55
2023-09-18T20:25:47.166Z,4.15
2023-09-18T20:30:56.636Z,3.45
2023-09-18T20:36:03.714Z,3.92
2023-09-18T20:41:09.929Z,3.22
2023-09-18T20:46:15.412Z,4.05
2023-09-18T20:51:21.247Z,3.72
2023-09-18T20:56:25.473Z,4.68
2023-09-18T21:01:30.241Z,4.03
2023-09-18T21:06:36.808Z,4.20
2023-09-18T21:11:43.152Z,4.68
2023-09-18T21:16:47.438Z,4.03
2023-09-18T21:21:53.246Z,3.92
2023-09-18T21:26:57.416Z,3.45
2023-09-18T21:32:04.677Z,3.42
2023-09-18T21:37:10.464Z,3.40
2023-09-18T21:42:14.744Z,3.95
2023-09-18T21:47:21.531Z,4.00
2023-09-18T21:52:27.303Z,3.15
2023-09-18T21:57:31.710Z,3.92
2023-09-18T22:02:36.956Z,5.47
2023-09-18T22:07:42.798Z,4.70
2023-09-18T22:12:47.100Z,3.90
2023-09-18T22:17:51.461Z,4.10
2023-09-18T22:22:57.925Z,4.40
2023-09-18T22:28:03.151Z,3.92
2023-09-18T22:33:08.530Z,3.88
2023-09-18T22:38:21.091Z,3.75
2023-09-18T22:44:02.803Z,4.28
2023-09-18T22:49:45.503Z,4.40
2023-09-18T22:54:54.331Z,3.45
2023-09-18T23:00:00.741Z,3.90
2023-09-18T23:05:05.471Z,4.22
2023-09-18T23:10:13.652Z,3.97
2023-09-18T23:15:19.236Z,4.20
2023-09-18T23:20:25.644Z,3.88
2023-09-18T23:25:34.044Z,3.95
2023-09-18T23:30:38.457Z,3.70
2023-09-18T23:35:46.590Z,4.10
2023-09-18T23:40:52.255Z,3.73
2023-09-18T23:45:59.890Z,4.40
2023-09-18T23:51:06.016Z,3.92
2023-09-18T23:56:14.149Z,4.55
